createdAt,value
2023-02-20T00:01:11.310Z,2
2023-02-20T00:02:27.607Z,2.1
2023-02-20T00:03:43.910Z,2
2023-02-20T00:05:00.203Z,2.2
2023-02-20T00:06:16.482Z,2.2
2023-02-20T00:07:32.781Z,1.9
2023-02-20T00:10:05.370Z,1.6
2023-02-20T00:11:20.681Z,1.5
2023-02-20T00:12:36.980Z,1.8
2023-02-20T00:13:53.254Z,1.7
2023-02-20T00:15:09.567Z,2
2023-02-20T00:16:25.860Z,1.8
2023-02-20T00:17:42.146Z,1.8
2023-02-20T00:18:58.440Z,1.8
2023-02-20T00:20:14.739Z,1.5
2023-02-20T00:21:31.023Z,1.6
2023-02-20T00:22:47.317Z,1.5
2023-02-20T00:24:03.602Z,1.9
2023-02-20T00:25:19.895Z,2.1
2023-02-20T00:26:36.189Z,2.3
2023-02-20T00:27:51.501Z,2.2
2023-02-20T00:29:07.806Z,2.2
2023-02-20T00:30:24.084Z,2.4
2023-02-20T00:31:40.376Z,1.8
2023-02-20T00:32:56.675Z,1.9
2023-02-20T00:34:12.975Z,2.7
2023-02-20T00:35:29.271Z,2.1
2023-02-20T00:36:45.563Z,2.6
2023-02-20T00:38:01.858Z,2.2
2023-02-20T00:39:18.150Z,2
2023-02-20T00:40:34.445Z,1.9
2023-02-20T00:41:50.733Z,2.2
2023-02-20T00:43:07.016Z,2
2023-02-20T00:44:22.336Z,3.2
2023-02-20T00:45:38.618Z,2.1
2023-02-20T00:46:54.927Z,1.6
2023-02-20T00:48:11.221Z,2
2023-02-20T00:49:27.515Z,2.3
2023-02-20T00:50:43.796Z,2.4
2023-02-20T00:52:00.094Z,2.2
2023-02-20T00:53:16.378Z,2.1
2023-02-20T00:54:32.672Z,2.2
2023-02-20T00:55:48.968Z,2
2023-02-20T00:57:05.273Z,2.1
2023-02-20T00:58:21.569Z,2.4
2023-02-20T00:59:37.846Z,2.4
2023-02-20T01:00:53.163Z,2.8
2023-02-20T01:02:09.464Z,2.4
2023-02-20T01:03:25.753Z,2.4
2023-02-20T01:04:42.033Z,2.3
2023-02-20T01:05:58.000Z,1.9
2023-02-20T01:07:14.618Z,2.1
2023-02-20T01:08:29.949Z,2
2023-02-20T01:09:46.244Z,2
2023-02-20T01:11:02.519Z,1.8
2023-02-20T01:12:18.832Z,1.8
2023-02-20T01:13:35.114Z,2.3
2023-02-20T01:14:51.401Z,2
2023-02-20T01:16:07.706Z,1.9
2023-02-20T01:17:24.001Z,1.9
2023-02-20T01:18:40.292Z,2.6
2023-02-20T01:19:56.594Z,1.8
2023-02-20T01:21:12.875Z,2
2023-02-20T01:22:29.173Z,1.9
2023-02-20T01:23:45.463Z,2.1
2023-02-20T01:25:00.764Z,2
2023-02-20T01:26:17.074Z,2.3
2023-02-20T01:27:33.364Z,1.6
2023-02-20T01:28:49.650Z,2
2023-02-20T01:30:05.955Z,2.2
2023-02-20T01:31:22.233Z,2.1
2023-02-20T01:32:38.528Z,1.8
2023-02-20T01:33:54.819Z,2.1
2023-02-20T01:35:11.121Z,1.7
2023-02-20T01:36:27.423Z,1.6
2023-02-20T01:37:43.708Z,2
2023-02-20T01:38:59.995Z,1.9
2023-02-20T01:40:16.297Z,2
2023-02-20T01:41:31.606Z,1.8
2023-02-20T01:42:47.886Z,1.8
2023-02-20T01:44:04.195Z,1.9
2023-02-20T01:45:20.486Z,1.9
2023-02-20T01:46:36.775Z,1.8
2023-02-20T01:47:53.062Z,1.9
2023-02-20T01:49:09.352Z,2.1
2023-02-20T01:50:25.648Z,1.8
2023-02-20T01:51:41.947Z,1.8
2023-02-20T01:52:58.246Z,2
2023-02-20T01:54:14.544Z,1.8
2023-02-20T01:55:30.834Z,1.9
2023-02-20T01:56:47.110Z,1.7
2023-02-20T01:58:02.438Z,2
2023-02-20T01:59:18.723Z,1.8
2023-02-20T02:00:35.013Z,2.1
2023-02-20T02:01:51.346Z,1.6
2023-02-20T02:03:07.642Z,1.6
2023-02-20T02:04:23.928Z,1.9
2023-02-20T02:05:40.223Z,1.9
2023-02-20T02:08:12.812Z,1.7
2023-02-20T02:09:29.092Z,1.9
2023-02-20T02:10:45.400Z,1.8
2023-02-20T02:12:01.686Z,2.2
2023-02-20T02:13:17.980Z,1.8
2023-02-20T02:14:33.281Z,1.7
2023-02-20T02:15:49.570Z,1.8
2023-02-20T02:17:05.874Z,1.7
2023-02-20T02:18:22.161Z,1.6
2023-02-20T02:19:38.459Z,1.6
2023-02-20T02:20:54.757Z,1.6
2023-02-20T02:22:11.047Z,1.7
2023-02-20T02:23:27.330Z,1.6
2023-02-20T02:24:43.639Z,1.9
2023-02-20T02:25:59.928Z,1.8
2023-02-20T02:27:16.219Z,1.7
2023-02-20T02:28:32.520Z,1.6
2023-02-20T02:29:48.802Z,4.4
2023-02-20T02:31:04.116Z,1.9
2023-02-20T02:32:20.407Z,1.5
2023-02-20T02:33:36.710Z,1.7
2023-02-20T02:34:52.996Z,1.6
2023-02-20T02:36:09.293Z,1.5
2023-02-20T02:37:25.581Z,1.6
2023-02-20T02:38:41.880Z,1.6
2023-02-20T02:39:58.173Z,1.4
2023-02-20T02:41:14.466Z,1.5
2023-02-20T02:42:30.756Z,1.6
2023-02-20T02:43:47.049Z,1.4
2023-02-20T02:45:03.340Z,2.1
2023-02-20T02:46:19.631Z,1.4
2023-02-20T02:47:34.932Z,1.6
2023-02-20T02:48:51.244Z,1.5
2023-02-20T02:50:07.535Z,1.4
2023-02-20T02:51:23.819Z,1.3
2023-02-20T02:52:40.125Z,1.4
2023-02-20T02:53:56.403Z,1.4
2023-02-20T02:55:12.705Z,1.4
2023-02-20T02:56:29.004Z,1.5
2023-02-20T02:57:45.298Z,1.2
2023-02-20T02:59:01.589Z,1.3
2023-02-20T03:00:17.878Z,1.3
2023-02-20T03:01:34.176Z,1.4
2023-02-20T03:02:50.469Z,1.4
2023-02-20T03:04:05.778Z,1.6
2023-02-20T03:05:22.062Z,1.5
2023-02-20T03:06:38.349Z,1.5
2023-02-20T03:07:54.658Z,1.4
2023-02-20T03:09:10.949Z,1.2
2023-02-20T03:10:27.234Z,1.2
2023-02-20T03:11:43.535Z,1.3
2023-02-20T03:12:59.833Z,1.6
2023-02-20T03:15:32.416Z,1.2
2023-02-20T03:16:48.713Z,1.6
2023-02-20T03:18:05.001Z,1.3
2023-02-20T03:19:21.297Z,1.7
2023-02-20T03:20:36.591Z,1.2
2023-02-20T03:21:52.900Z,1.4
2023-02-20T03:23:09.182Z,1.6
2023-02-20T03:24:25.477Z,1.3
2023-02-20T03:25:41.768Z,1.3
2023-02-20T03:26:58.060Z,1.6
2023-02-20T03:28:14.353Z,1.4
2023-02-20T03:29:30.645Z,1.6
2023-02-20T03:30:46.955Z,1.7
2023-02-20T03:32:03.237Z,1.5
2023-02-20T03:33:19.532Z,1.7
2023-02-20T03:34:35.826Z,1.6
2023-02-20T03:35:52.124Z,1.7
2023-02-20T03:37:07.431Z,1.7
2023-02-20T03:38:23.714Z,1.7
2023-02-20T03:39:40.010Z,2.1
2023-02-20T03:40:56.314Z,2
2023-02-20T03:42:12.595Z,2
2023-02-20T03:43:28.903Z,1.7
2023-02-20T03:44:45.178Z,1.9
2023-02-20T03:46:01.473Z,2.4
2023-02-20T03:47:17.773Z,2.4
2023-02-20T03:48:34.075Z,2.2
2023-02-20T03:49:50.364Z,2.1
2023-02-20T03:51:06.651Z,2.3
2023-02-20T03:52:22.955Z,2.2
2023-02-20T03:53:38.252Z,2.5
2023-02-20T03:54:54.548Z,2.1
2023-02-20T03:56:10.843Z,2.4
2023-02-20T03:57:27.135Z,2.5
2023-02-20T03:58:43.434Z,2.6
2023-02-20T03:59:59.729Z,2
2023-02-20T04:01:16.017Z,2.4
2023-02-20T04:02:32.308Z,2.7
2023-02-20T04:03:48.594Z,1.9
2023-02-20T04:05:04.889Z,2.1
2023-02-20T04:06:21.196Z,2.4
2023-02-20T04:07:37.472Z,2.3
2023-02-20T04:08:53.770Z,2.3
2023-02-20T04:10:09.089Z,2.5
2023-02-20T04:11:25.384Z,2.8
2023-02-20T04:12:41.668Z,2.4
2023-02-20T04:13:57.960Z,2.3
2023-02-20T04:15:14.262Z,2.4
2023-02-20T04:16:30.551Z,2.3
2023-02-20T04:17:46.838Z,2.3
2023-02-20T04:19:03.129Z,2.7
2023-02-20T04:20:19.423Z,2.3
2023-02-20T04:21:35.720Z,2.2
2023-02-20T04:22:52.004Z,2.9
2023-02-20T04:24:08.308Z,2.9
2023-02-20T04:25:24.603Z,2.2
2023-02-20T04:26:39.900Z,2.2
2023-02-20T04:27:56.198Z,2.1
2023-02-20T04:29:12.495Z,2.1
2023-02-20T04:30:28.795Z,2.3
2023-02-20T04:31:45.074Z,2.4
2023-02-20T04:33:01.375Z,2.6
2023-02-20T04:34:17.662Z,2.2
2023-02-20T04:35:33.963Z,2.2
2023-02-20T04:36:50.254Z,2
2023-02-20T04:38:06.557Z,2
2023-02-20T04:39:22.848Z,2.2
2023-02-20T04:40:39.129Z,2.3
2023-02-20T04:41:55.432Z,2.3
2023-02-20T04:43:10.731Z,2.3
2023-02-20T04:44:27.020Z,2.1
2023-02-20T04:45:43.322Z,2.2
2023-02-20T04:46:59.618Z,2.1
2023-02-20T04:48:15.911Z,2.3
2023-02-20T04:49:32.208Z,2.2
2023-02-20T04:50:48.496Z,1.7
2023-02-20T04:52:04.786Z,2.4
2023-02-20T04:53:21.085Z,2.2
2023-02-20T04:54:37.379Z,2.1
2023-02-20T04:55:53.678Z,2
2023-02-20T04:57:09.955Z,2.3
2023-02-20T04:58:26.246Z,2.4
2023-02-20T04:59:41.561Z,2.2
2023-02-20T05:00:57.849Z,2.3
2023-02-20T05:02:14.154Z,2.1
2023-02-20T05:03:30.449Z,2.4
2023-02-20T05:04:46.731Z,2.1
2023-02-20T05:06:03.036Z,2.4
2023-02-20T05:07:19.328Z,2.3
2023-02-20T05:08:35.616Z,2.6
2023-02-20T05:09:51.912Z,2.1
2023-02-20T05:11:08.200Z,2.4
2023-02-20T05:12:24.502Z,2.4
2023-02-20T05:13:40.798Z,2.2
2023-02-20T05:14:57.078Z,2.6
2023-02-20T05:16:12.399Z,2.7
2023-02-20T05:17:28.687Z,2.2
2023-02-20T05:18:44.972Z,3.1
2023-02-20T05:20:01.265Z,2.9
2023-02-20T05:21:17.565Z,2.9
2023-02-20T05:22:33.850Z,2.7
2023-02-20T05:23:49.164Z,2.8
2023-02-20T05:25:05.467Z,2.9
2023-02-20T05:26:21.759Z,2.5
2023-02-20T05:27:38.058Z,2.2
2023-02-20T05:28:54.336Z,2.7
2023-02-20T05:30:10.647Z,3.2
2023-02-20T05:31:26.925Z,2.5
2023-02-20T05:32:43.218Z,2.7
2023-02-20T05:33:59.526Z,2.6
2023-02-20T05:35:15.818Z,2.6
2023-02-20T05:36:32.103Z,2.4
2023-02-20T05:37:48.394Z,2.4
2023-02-20T05:39:04.690Z,2.5
2023-02-20T05:40:19.994Z,3.1
2023-02-20T05:41:36.286Z,2.7
2023-02-20T05:42:52.588Z,2.6
2023-02-20T05:44:08.869Z,2
2023-02-20T05:45:25.166Z,2.5
2023-02-20T05:46:41.473Z,2.3
2023-02-20T05:47:57.769Z,2.3
2023-02-20T05:49:14.046Z,2.1
2023-02-20T05:50:30.291Z,2.6
2023-02-20T05:51:46.546Z,2.6
2023-02-20T05:53:02.772Z,2.2
2023-02-20T05:54:19.012Z,2.7
2023-02-20T05:55:35.260Z,2
2023-02-20T05:56:50.522Z,2
2023-02-20T05:58:06.775Z,2.4
2023-02-20T05:59:22.997Z,2.1
2023-02-20T06:00:39.246Z,2.5
2023-02-20T06:01:55.489Z,2.3
2023-02-20T06:03:11.733Z,2
2023-02-20T06:04:27.985Z,2.3
2023-02-20T06:05:44.213Z,2.1
2023-02-20T06:07:00.460Z,1.9
2023-02-20T06:08:16.683Z,2.1
2023-02-20T06:09:32.925Z,1.8
2023-02-20T06:10:49.167Z,2.1
2023-02-20T06:12:05.410Z,1.9
2023-02-20T06:13:20.674Z,2.4
2023-02-20T06:14:36.908Z,2
2023-02-20T06:15:53.147Z,2
2023-02-20T06:17:09.379Z,2.1
2023-02-20T06:18:25.631Z,1.8
2023-02-20T06:19:41.866Z,2
2023-02-20T06:20:58.108Z,2
2023-02-20T06:22:14.331Z,2
2023-02-20T06:23:30.577Z,1.9
2023-02-20T06:24:46.818Z,2
2023-02-20T06:26:03.055Z,1.9
2023-02-20T06:27:19.301Z,2.2
2023-02-20T06:28:35.540Z,2.5
2023-02-20T06:29:50.782Z,1.9
2023-02-20T06:31:07.026Z,1.7
2023-02-20T06:32:23.270Z,1.9
2023-02-20T06:33:39.517Z,2.1
2023-02-20T06:34:55.759Z,2.2
2023-02-20T06:36:11.981Z,2.2
2023-02-20T06:37:28.219Z,1.9
2023-02-20T06:38:44.462Z,1.7
2023-02-20T06:40:00.709Z,2
2023-02-20T06:41:16.955Z,1.9
2023-02-20T06:42:33.177Z,1.8
2023-02-20T06:43:49.424Z,2.1
2023-02-20T06:45:05.668Z,1.8
2023-02-20T06:46:20.922Z,2.2
2023-02-20T06:47:37.166Z,2.1
2023-02-20T06:48:53.395Z,2
2023-02-20T06:50:09.642Z,2.3
2023-02-20T06:51:25.870Z,1.7
2023-02-20T06:52:42.108Z,2.1
2023-02-20T06:53:58.351Z,2.3
2023-02-20T06:55:14.593Z,1.7
2023-02-20T06:56:30.832Z,1.8
2023-02-20T06:57:47.072Z,1.9
2023-02-20T06:59:03.316Z,1.9
2023-02-20T07:00:19.556Z,1.9
2023-02-20T07:01:35.796Z,1.7
2023-02-20T07:02:51.044Z,1.8
2023-02-20T07:04:07.283Z,1.9
2023-02-20T07:05:23.534Z,1.6
2023-02-20T07:06:39.754Z,1.8
2023-02-20T07:07:56.012Z,1.8
2023-02-20T07:09:12.253Z,1.5
2023-02-20T07:10:28.481Z,1.6
2023-02-20T07:11:44.728Z,1.9
2023-02-20T07:13:00.956Z,1.7
2023-02-20T07:14:17.206Z,1.8
2023-02-20T07:15:33.448Z,1.7
2023-02-20T07:16:49.683Z,1.7
2023-02-20T07:18:05.909Z,1.8
2023-02-20T07:19:21.182Z,2
2023-02-20T07:20:37.405Z,2.2
2023-02-20T07:21:53.640Z,2.2
2023-02-20T07:23:09.883Z,1.8
2023-02-20T07:24:26.129Z,1.7
2023-02-20T07:25:42.363Z,2.2
2023-02-20T07:26:58.598Z,2.2
2023-02-20T07:28:14.855Z,2.6
2023-02-20T07:29:31.077Z,2.1
2023-02-20T07:30:47.333Z,2
2023-02-20T07:32:03.557Z,2
2023-02-20T07:33:19.797Z,2.4
2023-02-20T07:34:36.045Z,2.4
2023-02-20T07:35:51.293Z,2.3
2023-02-20T07:37:07.532Z,1.8
2023-02-20T07:38:23.773Z,2
2023-02-20T07:39:40.019Z,2
2023-02-20T07:40:56.263Z,2.1
2023-02-20T07:42:12.496Z,2
2023-02-20T07:43:28.737Z,2.1
2023-02-20T07:44:44.980Z,1.8
2023-02-20T07:46:01.225Z,2
2023-02-20T07:47:17.444Z,1.6
2023-02-20T07:48:33.684Z,1.9
2023-02-20T07:49:49.934Z,1.9
2023-02-20T07:51:06.169Z,1.9
2023-02-20T07:52:21.416Z,1.8
2023-02-20T07:53:37.668Z,1.6
2023-02-20T07:54:53.907Z,1.9
2023-02-20T07:56:10.140Z,1.4
2023-02-20T07:57:26.389Z,2
2023-02-20T07:58:42.628Z,1.8
2023-02-20T07:59:58.851Z,1.8
2023-02-20T08:01:15.094Z,1.8
2023-02-20T08:02:31.336Z,1.9
2023-02-20T08:03:47.577Z,2.1
2023-02-20T08:05:03.825Z,1.8
2023-02-20T08:06:20.062Z,1.5
2023-02-20T08:07:36.293Z,1.8
2023-02-20T08:08:51.541Z,1.8
2023-02-20T08:10:07.779Z,2.2
2023-02-20T08:11:24.038Z,2.2
2023-02-20T08:12:40.262Z,2
2023-02-20T08:13:56.498Z,1.8
2023-02-20T08:15:12.739Z,1.8
2023-02-20T08:16:28.989Z,2
2023-02-20T08:17:45.217Z,2.1
2023-02-20T08:19:01.458Z,1.8
2023-02-20T08:20:17.696Z,1.8
2023-02-20T08:21:33.932Z,1.6
2023-02-20T08:22:50.170Z,1.7
2023-02-20T08:24:06.417Z,1.9
2023-02-20T08:25:21.678Z,1.8
2023-02-20T08:26:37.907Z,1.7
2023-02-20T08:27:54.147Z,1.7
2023-02-20T08:29:10.398Z,1.7
2023-02-20T08:30:26.635Z,1.8
2023-02-20T08:31:42.871Z,1.4
2023-02-20T08:32:59.107Z,1.4
2023-02-20T08:34:15.351Z,1.7
2023-02-20T08:35:31.604Z,1.8
2023-02-20T08:36:47.818Z,1.6
2023-02-20T08:38:04.069Z,1.8
2023-02-20T08:39:20.308Z,1.7
2023-02-20T08:40:36.539Z,2
2023-02-20T08:41:51.794Z,1.6
2023-02-20T08:43:08.052Z,1.6
2023-02-20T08:44:24.273Z,1.4
2023-02-20T08:45:40.525Z,1.7
2023-02-20T08:46:56.755Z,1.6
2023-02-20T08:48:13.007Z,1.6
2023-02-20T08:49:29.235Z,1.3
2023-02-20T08:50:45.485Z,1.5
2023-02-20T08:52:01.707Z,1.4
2023-02-20T08:53:17.948Z,1.6
2023-02-20T08:54:34.194Z,1.7
2023-02-20T08:55:50.431Z,1.5
2023-02-20T08:57:06.663Z,1.5
2023-02-20T08:58:21.925Z,1.5
2023-02-20T08:59:38.162Z,1.8
2023-02-20T09:00:54.410Z,1.7
2023-02-20T09:02:10.649Z,1.3
2023-02-20T09:03:26.881Z,1.5
2023-02-20T09:04:43.122Z,1.5
2023-02-20T09:05:59.366Z,1.5
2023-02-20T09:07:15.608Z,1.4
2023-02-20T09:08:31.844Z,1.4
2023-02-20T09:09:48.072Z,1.2
2023-02-20T09:11:04.313Z,1.3
2023-02-20T09:12:20.563Z,1.3
2023-02-20T09:13:36.800Z,1
2023-02-20T09:14:52.056Z,1.3
2023-02-20T09:16:08.294Z,1.3
2023-02-20T09:17:24.520Z,1.2
2023-02-20T09:18:40.767Z,1.1
2023-02-20T09:19:56.999Z,1.4
2023-02-20T09:21:13.249Z,1.1
2023-02-20T09:22:29.484Z,1.2
2023-02-20T09:23:45.722Z,1.2
2023-02-20T09:25:01.958Z,1.3
2023-02-20T09:26:18.202Z,0.7
2023-02-20T09:27:34.432Z,1.1
2023-02-20T09:28:50.678Z,1.4
2023-02-20T09:30:06.913Z,1.1
2023-02-20T09:31:22.170Z,0.9
2023-02-20T09:32:38.414Z,0.9
2023-02-20T09:33:54.645Z,1
2023-02-20T09:35:10.903Z,1
2023-02-20T09:36:27.134Z,1.1
2023-02-20T09:37:43.379Z,1
2023-02-20T09:38:58.631Z,0.7
2023-02-20T09:40:14.871Z,1.1
2023-02-20T09:41:31.109Z,1.1
2023-02-20T09:42:47.346Z,0.9
2023-02-20T09:44:03.596Z,1
2023-02-20T09:45:19.819Z,1.1
2023-02-20T09:46:36.068Z,0.9
2023-02-20T09:47:52.312Z,0.8
2023-02-20T09:49:08.553Z,1.6
2023-02-20T09:50:24.786Z,1
2023-02-20T09:51:41.018Z,0.8
2023-02-20T09:52:57.260Z,0.9
2023-02-20T09:54:13.500Z,0.7
2023-02-20T09:55:28.764Z,0.8
2023-02-20T09:56:45.001Z,0.9
2023-02-20T09:58:01.235Z,0.7
2023-02-20T09:59:17.474Z,0.7
2023-02-20T10:00:33.704Z,1
2023-02-20T10:01:49.962Z,0.6
2023-02-20T10:03:06.198Z,0.9
2023-02-20T10:04:22.426Z,0.7
2023-02-20T10:05:38.677Z,0.8
2023-02-20T10:06:54.916Z,0.9
2023-02-20T10:08:11.149Z,0.7
2023-02-20T10:09:27.390Z,0.6
2023-02-20T10:10:43.624Z,0.7
2023-02-20T10:11:58.872Z,0.7
2023-02-20T10:13:15.126Z,0.6
2023-02-20T10:14:31.359Z,0.9
2023-02-20T10:15:47.588Z,0.8
2023-02-20T10:17:03.842Z,0.7
2023-02-20T10:18:20.078Z,0.6
2023-02-20T10:19:36.306Z,0.5
2023-02-20T10:20:52.543Z,0.8
2023-02-20T10:22:08.797Z,0.7
2023-02-20T10:23:25.027Z,0.7
2023-02-20T10:24:41.266Z,0.6
2023-02-20T10:25:57.508Z,0.7
2023-02-20T10:27:13.758Z,0.5
2023-02-20T10:28:29.002Z,0.9
2023-02-20T10:29:45.237Z,0.7
2023-02-20T10:31:01.477Z,0.8
2023-02-20T10:32:17.725Z,0.9
2023-02-20T10:33:33.968Z,0.5
2023-02-20T10:34:50.202Z,0.7
2023-02-20T10:36:06.439Z,0.7
2023-02-20T10:37:22.679Z,0.8
2023-02-20T10:38:38.914Z,0.6
2023-02-20T10:39:55.161Z,0.7
2023-02-20T10:41:11.394Z,0.5
2023-02-20T10:42:27.626Z,0.6
2023-02-20T10:43:43.874Z,0.5
2023-02-20T10:44:59.129Z,0.7
2023-02-20T10:46:15.356Z,0.5
2023-02-20T10:47:31.611Z,0.9
2023-02-20T10:48:47.832Z,0.6
2023-02-20T10:50:04.080Z,0.7
2023-02-20T10:51:20.323Z,0.5
2023-02-20T10:52:36.568Z,0.5
2023-02-20T10:53:52.791Z,0.6
2023-02-20T10:55:09.044Z,0.4
2023-02-20T10:56:25.280Z,0.4
2023-02-20T10:57:41.506Z,0.6
2023-02-20T10:58:57.756Z,0.4
2023-02-20T11:00:13.994Z,0.6
2023-02-20T11:01:29.242Z,0.4
2023-02-20T11:02:45.487Z,0.4
2023-02-20T11:04:01.723Z,0.4
2023-02-20T11:05:17.956Z,2.1
2023-02-20T11:06:34.199Z,0.5
2023-02-20T11:07:50.448Z,0.4
2023-02-20T11:09:06.673Z,0.6
2023-02-20T11:10:22.913Z,0.5
2023-02-20T11:11:39.162Z,0.5
2023-02-20T11:12:55.388Z,0.6
2023-02-20T11:14:11.626Z,0.5
2023-02-20T11:15:27.868Z,0.4
2023-02-20T11:16:44.107Z,0.6
2023-02-20T11:17:59.365Z,0.5
2023-02-20T11:19:15.606Z,0.6
2023-02-20T11:20:31.840Z,0.7
2023-02-20T11:21:48.072Z,0.4
2023-02-20T11:23:04.329Z,0.5
2023-02-20T11:24:20.549Z,0.6
2023-02-20T11:25:36.803Z,0.5
2023-02-20T11:26:53.025Z,0.4
2023-02-20T11:28:09.280Z,0.4
2023-02-20T11:29:25.516Z,0.6
2023-02-20T11:30:41.757Z,0.4
2023-02-20T11:31:57.982Z,0.4
2023-02-20T11:33:14.223Z,0.5
2023-02-20T11:34:29.490Z,0.6
2023-02-20T11:35:45.713Z,0.3
2023-02-20T11:37:01.964Z,0.4
2023-02-20T11:38:18.208Z,0.5
2023-02-20T11:39:34.433Z,0.4
2023-02-20T11:40:50.686Z,0.5
2023-02-20T11:42:06.921Z,0.4
2023-02-20T11:43:23.156Z,0.4
2023-02-20T11:44:39.392Z,0.6
2023-02-20T11:45:55.627Z,0.3
2023-02-20T11:47:11.865Z,0.6
2023-02-20T11:48:28.104Z,0.5
2023-02-20T11:49:44.342Z,0.6
2023-02-20T11:50:59.596Z,0.4
2023-02-20T11:52:15.852Z,0.3
2023-02-20T11:53:32.076Z,0.6
2023-02-20T11:54:48.309Z,0.5
2023-02-20T11:56:04.556Z,0.4
2023-02-20T11:57:20.789Z,0.4
2023-02-20T11:58:37.038Z,0.5
2023-02-20T11:59:53.269Z,0.4
2023-02-20T12:01:09.521Z,0.7
2023-02-20T12:02:25.753Z,0.4
2023-02-20T12:03:41.980Z,0.5
2023-02-20T12:04:58.227Z,0.4
2023-02-20T12:06:14.478Z,0.4
2023-02-20T12:07:29.729Z,0.4
2023-02-20T12:08:45.957Z,0.4
2023-02-20T12:10:02.203Z,0.3
2023-02-20T12:11:18.433Z,0.6
2023-02-20T12:12:34.674Z,0.6
2023-02-20T12:13:50.920Z,0.4
2023-02-20T12:15:07.155Z,0.4
2023-02-20T12:16:23.395Z,0.4
2023-02-20T12:17:39.622Z,0.6
2023-02-20T12:18:55.881Z,0.5
2023-02-20T12:20:12.112Z,0.7
2023-02-20T12:21:28.353Z,0.4
2023-02-20T12:22:44.577Z,0.3
2023-02-20T12:23:59.841Z,0.4
2023-02-20T12:25:16.086Z,0.4
2023-02-20T12:26:32.314Z,0.4
2023-02-20T12:27:48.552Z,0.3
2023-02-20T12:29:04.787Z,0.5
2023-02-20T12:30:21.041Z,0.4
2023-02-20T12:31:37.271Z,0.5
2023-02-20T12:32:53.509Z,0.6
2023-02-20T12:34:09.749Z,0.4
2023-02-20T12:35:25.986Z,0.4
2023-02-20T12:36:42.230Z,0.5
2023-02-20T12:37:58.466Z,0.5
2023-02-20T12:39:14.703Z,0.3
2023-02-20T12:40:29.973Z,0.6
2023-02-20T12:41:46.201Z,0.4
2023-02-20T12:43:02.443Z,0.5
2023-02-20T12:44:18.689Z,0.4
2023-02-20T12:45:34.916Z,0.3
2023-02-20T12:46:51.148Z,0.3
2023-02-20T12:48:07.395Z,0.3
2023-02-20T12:49:23.626Z,0.3
2023-02-20T12:50:39.874Z,0.5
2023-02-20T12:51:56.103Z,0.4
2023-02-20T12:53:12.355Z,0.5
2023-02-20T12:54:28.599Z,0.6
2023-02-20T12:55:44.828Z,0.8
2023-02-20T12:57:00.079Z,0.5
2023-02-20T12:58:16.330Z,0.4
2023-02-20T12:59:32.565Z,0.3
2023-02-20T13:00:48.795Z,0.3
2023-02-20T13:02:05.043Z,0.5
2023-02-20T13:03:21.277Z,0.3
2023-02-20T13:04:37.506Z,0.3
2023-02-20T13:05:53.743Z,0.5
2023-02-20T13:07:09.982Z,0.3
2023-02-20T13:08:26.225Z,0.4
2023-02-20T13:09:42.470Z,0.4
2023-02-20T13:10:58.700Z,0.3
2023-02-20T13:12:14.953Z,0.4
2023-02-20T13:13:30.197Z,0.4
2023-02-20T13:14:46.447Z,0.4
2023-02-20T13:16:02.672Z,0.5
2023-02-20T13:17:18.921Z,0.4
2023-02-20T13:18:35.151Z,0.4
2023-02-20T13:19:51.396Z,0.3
2023-02-20T13:21:07.635Z,0.5
2023-02-20T13:22:23.873Z,0.4
2023-02-20T13:23:40.110Z,0.5
2023-02-20T13:24:56.340Z,0.5
2023-02-20T13:26:12.581Z,0.5
2023-02-20T13:27:28.835Z,0.4
2023-02-20T13:28:45.077Z,0.3
2023-02-20T13:30:00.316Z,0.5
2023-02-20T13:31:16.565Z,0.4
2023-02-20T13:32:32.802Z,0.5
2023-02-20T13:33:49.034Z,0.3
2023-02-20T13:35:05.277Z,0.4
2023-02-20T13:36:21.513Z,0.4
2023-02-20T13:37:37.756Z,0.4
2023-02-20T13:38:53.985Z,0.4
2023-02-20T13:40:10.239Z,0.4
2023-02-20T13:41:26.458Z,0.4
2023-02-20T13:42:42.715Z,0.5
2023-02-20T13:43:58.939Z,0.6
2023-02-20T13:45:15.194Z,0.5
2023-02-20T13:46:30.442Z,0.6
2023-02-20T13:47:46.670Z,0.3
2023-02-20T13:49:02.915Z,0.5
2023-02-20T13:50:19.147Z,0.5
2023-02-20T13:51:35.393Z,0.4
2023-02-20T13:52:51.638Z,0.3
2023-02-20T13:54:06.900Z,0.6
2023-02-20T13:55:23.140Z,0.3
2023-02-20T13:56:39.377Z,0.5
2023-02-20T13:57:55.614Z,0.4
2023-02-20T13:59:11.852Z,0.5
2023-02-20T14:00:28.096Z,0.4
2023-02-20T14:01:44.318Z,0.4
2023-02-20T14:03:00.566Z,0.4
2023-02-20T14:04:16.796Z,0.4
2023-02-20T14:05:33.040Z,0.4
2023-02-20T14:08:05.524Z,0.6
2023-02-20T14:09:21.765Z,0.5
2023-02-20T14:10:37.011Z,0.5
2023-02-20T14:11:53.242Z,0.4
2023-02-20T14:13:09.492Z,0.4
2023-02-20T14:14:25.736Z,0.4
2023-02-20T14:15:41.976Z,0.5
2023-02-20T14:16:58.215Z,0.5
2023-02-20T14:18:14.455Z,0.6
2023-02-20T14:19:30.674Z,0.4
2023-02-20T14:20:46.922Z,0.5
2023-02-20T14:22:03.161Z,0.4
2023-02-20T14:23:19.411Z,0.5
2023-02-20T14:24:35.631Z,0.5
2023-02-20T14:25:51.879Z,0.3
2023-02-20T14:27:07.129Z,0.4
2023-02-20T14:28:23.366Z,0.4
2023-02-20T14:29:39.610Z,0.5
2023-02-20T14:30:55.859Z,0.5
2023-02-20T14:32:12.090Z,0.6
2023-02-20T14:33:28.330Z,0.5
2023-02-20T14:34:44.574Z,0.6
2023-02-20T14:36:00.798Z,0.7
2023-02-20T14:37:17.033Z,0.4
2023-02-20T14:38:33.285Z,0.6
2023-02-20T14:39:49.531Z,0.6
2023-02-20T14:41:05.765Z,0.3
2023-02-20T14:42:22.001Z,0.4
2023-02-20T14:43:37.263Z,0.6
2023-02-20T14:44:53.497Z,0.5
2023-02-20T14:46:09.723Z,0.5
2023-02-20T14:47:25.968Z,1.2
2023-02-20T14:48:42.214Z,2.3
2023-02-20T14:49:58.456Z,3.1
2023-02-20T14:51:14.676Z,1.6
2023-02-20T14:52:30.915Z,0.8
2023-02-20T14:53:47.168Z,0.5
2023-02-20T14:55:03.411Z,0.6
2023-02-20T14:56:19.638Z,0.8
2023-02-20T14:57:35.869Z,0.5
2023-02-20T14:58:52.115Z,0.4
2023-02-20T15:00:07.382Z,0.6
2023-02-20T15:01:23.602Z,0.8
2023-02-20T15:02:39.859Z,0.6
2023-02-20T15:03:56.096Z,0.3
2023-02-20T15:05:12.326Z,0.5
2023-02-20T15:06:28.557Z,0.4
2023-02-20T15:07:44.800Z,0.7
2023-02-20T15:09:01.042Z,0.6
2023-02-20T15:10:17.277Z,0.6
2023-02-20T15:11:33.532Z,0.8
2023-02-20T15:12:49.758Z,0.6
2023-02-20T15:14:05.992Z,0.5
2023-02-20T15:15:22.234Z,0.6
2023-02-20T15:16:37.482Z,0.5
2023-02-20T15:17:53.737Z,0.6
2023-02-20T15:19:09.975Z,0.6
2023-02-20T15:20:26.206Z,1
2023-02-20T15:21:42.454Z,0.7
2023-02-20T15:22:58.689Z,0.5
2023-02-20T15:24:14.922Z,0.8
2023-02-20T15:25:31.169Z,0.5
2023-02-20T15:26:47.412Z,0.9
2023-02-20T15:28:03.642Z,0.6
2023-02-20T15:29:19.888Z,0.8
2023-02-20T15:30:36.124Z,0.7
2023-02-20T15:31:52.363Z,0.8
2023-02-20T15:33:07.622Z,1
2023-02-20T15:34:23.843Z,0.6
2023-02-20T15:35:40.094Z,0.9
2023-02-20T15:36:56.330Z,1.2
2023-02-20T15:38:12.565Z,0.7
2023-02-20T15:39:28.804Z,0.8
2023-02-20T15:40:45.056Z,0.9
2023-02-20T15:42:01.276Z,1.3
2023-02-20T15:43:17.522Z,1.8
2023-02-20T15:44:33.755Z,1.8
2023-02-20T15:45:50.011Z,1.1
2023-02-20T15:47:06.232Z,0.8
2023-02-20T15:48:22.482Z,2.2
2023-02-20T15:49:37.744Z,1.3
2023-02-20T15:50:53.983Z,1.6
2023-02-20T15:52:10.206Z,1.5
2023-02-20T15:53:26.460Z,1.4
2023-02-20T15:54:42.691Z,0.8
2023-02-20T15:55:58.930Z,1.4
2023-02-20T15:57:15.175Z,1
2023-02-20T15:58:31.414Z,0.7
2023-02-20T15:59:47.639Z,1.3
2023-02-20T16:01:03.880Z,0.7
2023-02-20T16:02:20.113Z,0.9
2023-02-20T16:03:36.357Z,1.4
2023-02-20T16:04:52.602Z,0.8
2023-02-20T16:06:07.857Z,1.4
2023-02-20T16:07:24.092Z,0.7
2023-02-20T16:08:40.337Z,0.6
2023-02-20T16:09:56.576Z,0.8
2023-02-20T16:11:12.816Z,0.8
2023-02-20T16:12:29.045Z,1.3
2023-02-20T16:13:45.288Z,1
2023-02-20T16:15:01.517Z,0.9
2023-02-20T16:16:17.760Z,1.4
2023-02-20T16:17:34.004Z,1.1
2023-02-20T16:18:50.235Z,1.2
2023-02-20T16:20:06.482Z,0.9
2023-02-20T16:21:22.722Z,1
2023-02-20T16:22:37.969Z,0.7
2023-02-20T16:23:54.220Z,0.7
2023-02-20T16:25:10.445Z,0.8
2023-02-20T16:26:26.682Z,0.5
2023-02-20T16:27:42.926Z,0.9
2023-02-20T16:28:59.163Z,1
2023-02-20T16:30:15.407Z,0.7
2023-02-20T16:31:31.646Z,0.6
2023-02-20T16:32:47.894Z,0.6
2023-02-20T16:34:04.130Z,0.8
2023-02-20T16:35:20.369Z,0.8
2023-02-20T16:36:36.596Z,0.7
2023-02-20T16:37:52.849Z,0.9
2023-02-20T16:39:08.086Z,0.8
2023-02-20T16:40:24.343Z,1
2023-02-20T16:41:40.582Z,0.7
2023-02-20T16:42:56.811Z,0.7
2023-02-20T16:44:13.059Z,0.9
2023-02-20T16:45:29.297Z,1
2023-02-20T16:46:45.520Z,0.9
2023-02-20T16:48:01.776Z,0.9
2023-02-20T16:49:18.000Z,0.8
2023-02-20T16:50:34.245Z,0.7
2023-02-20T16:51:50.483Z,0.8
2023-02-20T16:53:06.733Z,1.2
2023-02-20T16:54:22.963Z,0.6
2023-02-20T16:55:38.222Z,0.5
2023-02-20T16:56:54.516Z,0.7
2023-02-20T16:58:10.766Z,0.8
2023-02-20T16:59:27.016Z,0.9
2023-02-20T17:00:43.296Z,0.7
2023-02-20T17:01:59.595Z,1
2023-02-20T17:03:15.897Z,1
2023-02-20T17:04:32.176Z,0.9
2023-02-20T17:05:48.477Z,1
2023-02-20T17:07:04.766Z,0.7
2023-02-20T17:08:21.058Z,0.6
2023-02-20T17:09:37.353Z,0.6
2023-02-20T17:10:53.639Z,0.9
2023-02-20T17:12:08.962Z,0.8
2023-02-20T17:13:25.250Z,0.6
2023-02-20T17:14:41.544Z,0.6
2023-02-20T17:15:57.842Z,0.9
2023-02-20T17:17:14.133Z,1.4
2023-02-20T17:18:30.421Z,1.5
2023-02-20T17:19:46.717Z,1.6
2023-02-20T17:21:02.996Z,1.7
2023-02-20T17:22:19.305Z,1.7
2023-02-20T17:23:35.585Z,1.4
2023-02-20T17:24:51.893Z,1
2023-02-20T17:26:08.184Z,1.1
2023-02-20T17:27:24.461Z,1
2023-02-20T17:28:39.778Z,0.8
2023-02-20T17:29:56.080Z,0.8
2023-02-20T17:31:12.359Z,0.7
2023-02-20T17:32:28.664Z,0.9
2023-02-20T17:33:44.946Z,0.9
2023-02-20T17:35:01.232Z,0.9
2023-02-20T17:36:17.528Z,0.7
2023-02-20T17:37:33.835Z,0.8
2023-02-20T17:38:50.118Z,1.1
2023-02-20T17:40:06.414Z,0.7